createdAt,value
2018-09-29T00:01:17.136Z,99167.88
2018-09-29T00:03:47.629Z,99169.41
2018-09-29T00:06:18.687Z,99168.60
2018-09-29T00:08:49.836Z,99174.14
2018-09-29T00:11:20.921Z,99178.62
2018-09-29T00:13:52.556Z,99181.71
2018-09-29T00:16:24.595Z,99183.69
2018-09-29T00:18:56.963Z,99184.17
2018-09-29T00:21:27.121Z,99191.56
2018-09-29T00:24:01.003Z,99188.23
2018-09-29T00:26:33.911Z,99182.39
2018-09-29T00:29:05.574Z,99180.27
2018-09-29T00:31:35.795Z,99171.72
2018-09-29T00:34:08.864Z,99171.30
2018-09-29T00:36:40.430Z,99174.96
2018-09-29T00:39:12.173Z,99171.20
2018-09-29T00:41:44.157Z,99176.94
2018-09-29T00:44:15.987Z,99173.51
2018-09-29T00:46:47.587Z,99176.20
2018-09-29T00:49:19.066Z,99168.52
2018-09-29T00:51:51.325Z,99162.52
2018-09-29T00:54:21.517Z,99163.48
2018-09-29T00:56:52.644Z,99166.20
2018-09-29T00:59:29.149Z,99168.91
2018-09-29T01:04:35.385Z,99165.59
2018-09-29T01:07:07.919Z,99164.38
2018-09-29T01:09:39.919Z,99163.97
2018-09-29T01:12:10.450Z,99168.30
2018-09-29T01:14:41.914Z,99168.75
2018-09-29T01:17:12.752Z,99157.60
2018-09-29T01:19:43.689Z,99164.15
2018-09-29T01:22:14.427Z,99159.53
2018-09-29T01:24:44.917Z,99153.56
2018-09-29T01:27:17.746Z,99154.06
2018-09-29T01:29:48.922Z,99151.51
2018-09-29T01:32:21.151Z,99153.31
2018-09-29T01:34:53.295Z,99148.62
2018-09-29T01:37:24.438Z,99143.50
2018-09-29T01:40:00.170Z,99144.75
2018-09-29T01:42:30.554Z,99147.83
2018-09-29T01:45:01.189Z,99152.55
2018-09-29T01:47:32.101Z,99152.12
2018-09-29T01:50:03.554Z,99139.13
2018-09-29T01:52:35.012Z,99139.92
2018-09-29T01:55:09.488Z,99144.22
2018-09-29T01:57:39.651Z,99145.16
2018-09-29T02:00:11.702Z,99143.87
2018-09-29T02:02:43.934Z,99149.48
2018-09-29T02:05:19.968Z,99155.57
2018-09-29T02:07:55.719Z,99149.47
2018-09-29T02:10:28.636Z,99152.05
2018-09-29T02:13:00.441Z,99159.77
2018-09-29T02:15:32.191Z,99155.94
2018-09-29T02:18:04.742Z,99154.59
2018-09-29T02:20:41.211Z,99161.94
2018-09-29T02:23:13.773Z,99156.31
2018-09-29T02:25:44.835Z,99161.13
2018-09-29T02:28:16.767Z,99162.47
2018-09-29T02:30:48.749Z,99164.75
2018-09-29T02:33:20.915Z,99162.60
2018-09-29T02:35:51.951Z,99169.51
2018-09-29T02:38:23.433Z,99169.52
2018-09-29T02:40:54.581Z,99176.48
2018-09-29T02:43:26.841Z,99169.63
2018-09-29T02:46:02.639Z,99159.76
2018-09-29T02:48:33.602Z,99164.11
2018-09-29T02:51:05.000Z,99163.72
2018-09-29T02:53:36.915Z,99160.35
2018-09-29T02:56:09.653Z,99168.14
2018-09-29T02:58:40.930Z,99171.62
2018-09-29T03:01:16.010Z,99171.59
2018-09-29T03:03:46.360Z,99177.64
2018-09-29T03:06:17.737Z,99176.35
2018-09-29T03:08:52.475Z,99180.66
2018-09-29T03:11:22.964Z,99181.52
2018-09-29T03:13:53.272Z,99182.81
2018-09-29T03:16:24.590Z,99180.23
2018-09-29T03:18:56.897Z,99181.55
2018-09-29T03:21:27.663Z,99192.74
2018-09-29T03:23:58.204Z,99191.05
2018-09-29T03:26:28.631Z,99192.78
2018-09-29T03:28:59.530Z,99195.83
2018-09-29T03:31:33.888Z,99197.97
2018-09-29T03:34:04.117Z,99201.00
2018-09-29T03:36:35.637Z,99200.55
2018-09-29T03:39:09.155Z,99194.99
2018-09-29T03:41:40.673Z,99187.69
2018-09-29T03:44:12.352Z,99191.53
2018-09-29T03:46:44.961Z,99188.55
2018-09-29T03:49:15.681Z,99191.11
2018-09-29T03:51:46.851Z,99197.15
2018-09-29T03:54:18.791Z,99195.88
2018-09-29T03:56:54.497Z,99193.27
2018-09-29T03:59:27.629Z,99198.88
2018-09-29T04:01:59.126Z,99207.90
2018-09-29T04:04:30.701Z,99203.17
2018-09-29T04:07:01.910Z,99201.44
2018-09-29T04:09:32.889Z,99198.86
2018-09-29T04:12:08.384Z,99202.72
2018-09-29T04:14:42.850Z,99198.84
2018-09-29T04:17:16.475Z,99200.55
2018-09-29T04:19:46.903Z,99205.70
2018-09-29T04:22:17.684Z,99207.84
2018-09-29T04:24:49.520Z,99216.00
2018-09-29T04:27:22.529Z,99217.27
2018-09-29T04:29:55.021Z,99219.86
2018-09-29T04:32:27.907Z,99218.98
2018-09-29T04:34:58.022Z,99222.41
2018-09-29T04:37:28.689Z,99217.71
2018-09-29T04:39:59.610Z,99229.75
2018-09-29T04:42:30.613Z,99237.02
2018-09-29T04:45:01.018Z,99235.30
2018-09-29T04:47:32.942Z,99233.13
2018-09-29T04:50:06.586Z,99239.14
2018-09-29T04:52:37.954Z,99238.69
2018-09-29T04:55:08.936Z,99234.81
2018-09-29T04:57:39.452Z,99234.81
2018-09-29T05:00:12.064Z,99233.97
2018-09-29T05:02:42.854Z,99236.96
2018-09-29T05:05:20.158Z,99233.08
2018-09-29T05:07:54.268Z,99227.91
2018-09-29T05:10:28.088Z,99231.34
2018-09-29T05:12:58.150Z,99227.92
2018-09-29T05:15:29.430Z,99224.92
2018-09-29T05:18:01.921Z,99227.94
2018-09-29T05:20:33.016Z,99233.51
2018-09-29T05:23:08.144Z,99237.41
2018-09-29T05:25:40.733Z,99236.55
2018-09-29T05:28:12.966Z,99245.55
2018-09-29T05:30:45.766Z,99248.14
2018-09-29T05:33:18.592Z,99246.84
2018-09-29T05:35:51.170Z,99245.54
2018-09-29T05:38:22.321Z,99256.30
2018-09-29T05:40:54.931Z,99256.28
2018-09-29T05:43:26.062Z,99258.04
2018-09-29T05:45:57.750Z,99264.07
2018-09-29T05:48:29.350Z,99263.23
2018-09-29T05:51:00.951Z,99272.33
2018-09-29T05:53:32.596Z,99273.23
2018-09-29T05:56:07.160Z,99272.81
2018-09-29T05:58:38.162Z,99280.59
2018-09-29T06:01:09.707Z,99280.17
2018-09-29T06:03:39.859Z,99281.89
2018-09-29T06:06:10.454Z,99279.28
2018-09-29T06:08:41.610Z,99277.55
2018-09-29T06:11:14.790Z,99277.92
2018-09-29T06:13:47.750Z,99278.73
2018-09-29T06:16:19.354Z,99288.59
2018-09-29T06:18:54.294Z,99298.42
2018-09-29T06:21:25.436Z,99294.03
2018-09-29T06:23:58.770Z,99287.94
2018-09-29T06:26:30.215Z,99292.15
2018-09-29T06:29:00.755Z,99290.20
2018-09-29T06:31:32.059Z,99290.55
2018-09-29T06:34:03.557Z,99285.67
2018-09-29T06:36:34.895Z,99291.56
2018-09-29T06:39:13.253Z,99290.55
2018-09-29T06:41:47.384Z,99282.16
2018-09-29T06:47:15.572Z,99287.23
2018-09-29T06:49:46.865Z,99281.36
2018-09-29T06:52:18.231Z,99291.02
2018-09-29T06:54:49.892Z,99287.02
2018-09-29T06:57:20.809Z,99288.84
2018-09-29T06:59:52.010Z,99298.48
2018-09-29T07:02:23.559Z,99300.36
2018-09-29T07:05:08.980Z,99296.61
2018-09-29T07:07:39.388Z,99300.59
2018-09-29T07:10:09.700Z,99290.40
2018-09-29T07:12:40.816Z,99295.20
2018-09-29T07:15:13.141Z,99301.33
2018-09-29T07:17:43.988Z,99305.75
2018-09-29T07:20:14.481Z,99303.59
2018-09-29T07:22:46.400Z,99298.24
2018-09-29T07:25:16.906Z,99304.80
2018-09-29T07:27:47.851Z,99307.94
2018-09-29T07:30:18.339Z,99310.98
2018-09-29T07:32:50.568Z,99303.81
2018-09-29T07:35:20.967Z,99302.81
2018-09-29T07:37:51.793Z,99308.91
2018-09-29T07:40:22.797Z,99309.70
2018-09-29T07:42:53.321Z,99302.35
2018-09-29T07:45:24.576Z,99304.43
2018-09-29T07:47:55.079Z,99291.41
2018-09-29T07:50:27.669Z,99289.17
2018-09-29T07:52:58.148Z,99299.85
2018-09-29T07:55:30.761Z,99298.77
2018-09-29T07:58:03.408Z,99297.31
2018-09-29T08:00:36.512Z,99291.41
2018-09-29T08:03:08.276Z,99288.91
2018-09-29T08:05:38.766Z,99290.34
2018-09-29T08:08:11.528Z,99286.00
2018-09-29T08:10:45.950Z,99275.81
2018-09-29T08:13:18.538Z,99269.63
2018-09-29T08:15:51.780Z,99270.97
2018-09-29T08:18:25.206Z,99273.69
2018-09-29T08:20:55.941Z,99264.03
2018-09-29T08:23:30.182Z,99260.05
2018-09-29T08:26:01.675Z,99256.77
2018-09-29T08:28:33.034Z,99250.56
2018-09-29T08:31:05.053Z,99247.77
2018-09-29T08:33:41.655Z,99250.53
2018-09-29T08:49:13.642Z,99251.80
2018-09-29T08:51:44.958Z,99255.67
2018-09-29T08:54:15.922Z,99252.53
2018-09-29T08:56:46.382Z,99243.53
2018-09-29T08:59:17.607Z,99253.36
2018-09-29T09:01:49.518Z,99254.64
2018-09-29T09:04:21.201Z,99256.07
2018-09-29T09:06:51.252Z,99257.23
2018-09-29T09:09:21.934Z,99247.02
2018-09-29T09:18:20.781Z,99250.54
2018-09-29T09:20:51.481Z,99258.82
2018-09-29T09:23:22.650Z,99246.07
2018-09-29T09:25:54.161Z,99237.55
2018-09-29T09:28:24.461Z,99233.31
2018-09-29T09:30:55.284Z,99231.89
2018-09-29T09:33:25.544Z,99233.33
2018-09-29T09:35:56.168Z,99223.03
2018-09-29T09:38:27.588Z,99220.13
2018-09-29T09:40:58.388Z,99216.28
2018-09-29T09:43:34.042Z,99206.81
2018-09-29T09:46:04.778Z,99203.02
2018-09-29T09:48:35.165Z,99202.48
2018-09-29T09:51:05.966Z,99211.19
2018-09-29T09:53:36.243Z,99208.52
2018-09-29T09:56:06.690Z,99206.58
2018-09-29T09:58:38.066Z,99200.77
2018-09-29T10:01:13.986Z,99189.30
2018-09-29T10:03:44.055Z,99181.66
2018-09-29T10:06:16.864Z,99180.11
2018-09-29T10:08:47.003Z,99173.72
2018-09-29T10:11:18.354Z,99178.30
2018-09-29T10:13:50.170Z,99172.74
2018-09-29T10:16:21.137Z,99178.31
2018-09-29T10:18:52.050Z,99169.66
2018-09-29T10:21:23.337Z,99172.06
2018-09-29T10:23:53.769Z,99165.88
2018-09-29T10:26:24.642Z,99169.34
2018-09-29T10:28:55.474Z,99165.93
2018-09-29T10:31:26.690Z,99161.06
2018-09-29T10:33:57.450Z,99161.48
2018-09-29T10:36:28.119Z,99166.53
2018-09-29T10:38:58.297Z,99168.24
2018-09-29T10:41:28.738Z,99171.54
2018-09-29T10:44:00.524Z,99161.09
2018-09-29T10:49:12.813Z,99153.19
2018-09-29T10:51:43.213Z,99152.37
2018-09-29T10:54:14.199Z,99145.99
2018-09-29T10:56:45.728Z,99140.49
2018-09-29T10:59:16.658Z,99143.91
2018-09-29T11:01:47.909Z,99148.69
2018-09-29T11:04:20.757Z,99134.42
2018-09-29T11:06:52.011Z,99130.08
2018-09-29T11:09:23.481Z,99126.50
2018-09-29T11:11:54.734Z,99130.92
2018-09-29T11:14:25.176Z,99126.92
2018-09-29T11:16:55.886Z,99118.13
2018-09-29T11:19:26.864Z,99120.00
2018-09-29T11:21:57.455Z,99116.72
2018-09-29T11:24:28.375Z,99107.59
2018-09-29T11:26:59.297Z,99107.80
2018-09-29T11:29:31.342Z,99098.42
2018-09-29T11:32:02.035Z,99099.28
2018-09-29T11:34:33.050Z,99091.72
2018-09-29T11:37:04.573Z,99086.26
2018-09-29T11:39:35.682Z,99081.64
2018-09-29T11:42:06.410Z,99075.45
2018-09-29T11:44:36.754Z,99079.88
2018-09-29T11:47:08.717Z,99068.70
2018-09-29T11:49:40.683Z,99056.30
2018-09-29T11:52:10.864Z,99057.41
2018-09-29T11:54:41.157Z,99054.19
2018-09-29T11:57:11.711Z,99052.08
2018-09-29T11:59:43.411Z,99043.28
2018-09-29T12:02:14.645Z,99041.46
2018-09-29T12:04:45.941Z,99039.03
2018-09-29T12:09:53.923Z,99032.86
2018-09-29T12:12:24.442Z,99010.03
2018-09-29T12:14:54.580Z,99020.33
2018-09-29T12:17:26.503Z,99021.31
2018-09-29T12:19:58.272Z,99011.39
2018-09-29T12:22:28.612Z,98999.20
2018-09-29T12:24:59.307Z,98998.43
2018-09-29T12:27:30.023Z,98989.81
2018-09-29T12:30:03.119Z,98974.53
2018-09-29T12:32:34.981Z,98978.73
2018-09-29T12:35:05.420Z,98974.70
2018-09-29T12:37:36.684Z,98971.84
2018-09-29T12:40:07.663Z,98975.93
2018-09-29T12:42:47.850Z,98970.75
2018-09-29T12:45:18.200Z,98964.81
2018-09-29T12:47:50.326Z,98962.04
2018-09-29T12:50:20.400Z,98948.34
2018-09-29T12:52:51.300Z,98961.78
2018-09-29T12:55:21.708Z,98957.16
2018-09-29T12:57:52.780Z,98959.55
2018-09-29T13:00:22.862Z,98952.27
2018-09-29T13:02:53.514Z,98948.38
2018-09-29T13:05:24.004Z,98945.44
2018-09-29T13:07:55.831Z,98949.39
2018-09-29T13:10:26.499Z,98940.83
2018-09-29T13:12:56.989Z,98937.43
2018-09-29T13:15:29.392Z,98935.16
2018-09-29T13:17:59.517Z,98939.05
2018-09-29T13:20:29.732Z,98931.55
2018-09-29T13:23:00.041Z,98927.75
2018-09-29T13:25:30.231Z,98924.39
2018-09-29T13:28:01.173Z,98922.30
2018-09-29T13:30:31.565Z,98923.61
2018-09-29T13:33:03.489Z,98915.09
2018-09-29T13:35:34.821Z,98917.27
2018-09-29T13:38:05.458Z,98913.41
2018-09-29T13:40:35.962Z,98912.07
2018-09-29T13:43:07.099Z,98907.83
2018-09-29T13:45:37.932Z,98906.80
2018-09-29T13:48:09.634Z,98896.69
2018-09-29T13:50:40.843Z,98902.17
2018-09-29T13:53:11.773Z,98903.08
2018-09-29T13:55:42.321Z,98910.95
2018-09-29T13:58:14.235Z,98902.11
2018-09-29T14:00:46.065Z,98892.10
2018-09-29T14:03:16.423Z,98891.72
2018-09-29T14:05:51.091Z,98891.14
2018-09-29T14:08:21.990Z,98890.91
2018-09-29T14:10:52.855Z,98900.27
2018-09-29T14:13:24.651Z,98894.09
2018-09-29T14:15:55.279Z,98887.69
2018-09-29T14:18:26.355Z,98884.41
2018-09-29T14:23:26.298Z,98883.69
2018-09-29T14:25:57.532Z,98880.63
2018-09-29T14:28:28.615Z,98880.87
2018-09-29T14:31:01.421Z,98877.56
2018-09-29T14:33:33.960Z,98875.18
2018-09-29T14:36:06.095Z,98868.92
2018-09-29T14:38:38.185Z,98868.16
2018-09-29T14:41:09.842Z,98868.05
2018-09-29T14:43:39.934Z,98866.14
2018-09-29T14:46:11.245Z,98868.19
2018-09-29T14:48:44.548Z,98872.19
2018-09-29T14:51:16.476Z,98864.11
2018-09-29T14:53:50.825Z,98862.75
2018-09-29T14:56:23.724Z,98853.11
2018-09-29T14:58:55.952Z,98855.52
2018-09-29T15:01:26.362Z,98852.95
2018-09-29T15:03:57.660Z,98847.61
2018-09-29T15:06:28.586Z,98845.36
2018-09-29T15:08:59.996Z,98838.73
2018-09-29T15:11:32.223Z,98836.28
2018-09-29T15:14:02.513Z,98836.55
2018-09-29T15:16:34.189Z,98835.54
2018-09-29T15:19:04.492Z,98833.78
2018-09-29T15:21:35.309Z,98834.43
2018-09-29T15:24:07.305Z,98833.53
2018-09-29T15:26:38.875Z,98834.87
2018-09-29T15:29:10.664Z,98837.27
2018-09-29T15:31:42.617Z,98813.09
2018-09-29T15:34:14.365Z,98828.39
2018-09-29T15:36:45.058Z,98824.49
2018-09-29T15:39:17.609Z,98820.94
2018-09-29T15:41:47.846Z,98822.21
2018-09-29T15:44:19.258Z,98829.05
2018-09-29T15:46:49.341Z,98825.94
2018-09-29T15:49:20.397Z,98822.29
2018-09-29T15:51:50.861Z,98818.34
2018-09-29T15:54:22.525Z,98814.37
2018-09-29T15:56:52.705Z,98821.52
2018-09-29T15:59:24.559Z,98818.15
2018-09-29T16:01:57.345Z,98818.14
2018-09-29T16:04:30.957Z,98812.11
2018-09-29T16:07:02.982Z,98818.19
2018-09-29T16:09:33.774Z,98812.13
2018-09-29T16:12:06.993Z,98807.95
2018-09-29T16:14:37.165Z,98806.47
2018-09-29T16:17:13.926Z,98802.25
2018-09-29T16:19:45.942Z,98803.80
2018-09-29T16:22:17.806Z,98808.37
2018-09-29T16:24:47.995Z,98809.91
2018-09-29T16:27:19.235Z,98805.52
2018-09-29T16:29:54.546Z,98804.28
2018-09-29T16:32:27.876Z,98802.41
2018-09-29T16:34:58.641Z,98804.37
2018-09-29T16:37:31.694Z,98796.98
2018-09-29T16:40:03.079Z,98803.38
2018-09-29T16:42:36.412Z,98806.91
2018-09-29T16:45:07.408Z,98807.20
2018-09-29T16:47:38.962Z,98810.24
2018-09-29T16:50:10.275Z,98804.48
2018-09-29T16:52:41.028Z,98804.34
2018-09-29T16:55:11.488Z,98808.48
2018-09-29T16:57:58.957Z,98811.45
2018-09-29T17:00:30.725Z,98809.75
2018-09-29T17:03:02.068Z,98812.78
2018-09-29T17:05:32.711Z,98811.06
2018-09-29T17:08:04.301Z,98813.81
2018-09-29T17:10:37.002Z,98805.11
2018-09-29T17:13:07.704Z,98808.50
2018-09-29T17:15:37.935Z,98804.91
2018-09-29T17:18:08.117Z,98801.24
2018-09-29T17:20:40.290Z,98808.98
2018-09-29T17:23:15.578Z,98807.81
2018-09-29T17:25:51.030Z,98816.80
2018-09-29T17:29:38.957Z,98809.03
2018-09-29T17:32:29.235Z,98816.23
2018-09-29T17:35:04.337Z,98810.48
2018-09-29T17:37:41.548Z,98811.89
2018-09-29T17:40:12.321Z,98810.50
2018-09-29T17:42:49.528Z,98813.02
2018-09-29T17:56:43.683Z,98815.16
2018-09-29T17:59:18.076Z,98809.55
2018-09-29T18:02:00.998Z,98812.91
2018-09-29T18:04:31.877Z,98819.95
2018-09-29T18:07:09.629Z,98816.09
2018-09-29T18:09:47.213Z,98815.59
2018-09-29T18:12:52.337Z,98810.06
2018-09-29T18:15:24.647Z,98815.84
2018-09-29T18:20:47.611Z,98812.30
2018-09-29T18:23:18.124Z,98806.84
2018-09-29T18:25:48.779Z,98810.88
2018-09-29T18:28:19.931Z,98816.50
2018-09-29T18:30:50.437Z,98817.52
2018-09-29T18:33:22.101Z,98817.96
2018-09-29T18:35:52.852Z,98811.04
2018-09-29T18:38:23.275Z,98814.02
2018-09-29T18:40:53.758Z,98808.52
2018-09-29T18:43:24.160Z,98811.45
2018-09-29T18:45:54.547Z,98815.15
2018-09-29T18:48:25.363Z,98820.97
2018-09-29T18:50:55.699Z,98820.02
2018-09-29T18:53:26.175Z,98821.55
2018-09-29T18:55:56.686Z,98829.71
2018-09-29T18:58:27.152Z,98828.30
2018-09-29T19:00:57.678Z,98832.45
2018-09-29T19:03:28.222Z,98827.91
2018-09-29T19:05:58.714Z,98828.57
2018-09-29T19:08:29.478Z,98827.04
2018-09-29T19:11:01.076Z,98823.34
2018-09-29T19:13:32.288Z,98829.58
2018-09-29T19:16:02.808Z,98822.70
2018-09-29T19:18:33.196Z,98814.58
2018-09-29T19:21:04.235Z,98813.05
2018-09-29T19:23:34.772Z,98812.12
2018-09-29T19:26:05.559Z,98815.20
2018-09-29T19:28:36.016Z,98811.87
2018-09-29T19:31:06.727Z,98815.47
2018-09-29T19:33:37.171Z,98811.87
2018-09-29T19:36:09.014Z,98820.31
2018-09-29T19:38:39.390Z,98817.94
2018-09-29T19:41:11.119Z,98812.04
2018-09-29T19:43:41.599Z,98811.72
2018-09-29T19:46:11.985Z,98810.01
2018-09-29T19:48:42.617Z,98809.53
2018-09-29T19:51:13.461Z,98803.16
2018-09-29T19:53:44.158Z,98806.36
2018-09-29T19:56:14.537Z,98804.23
2018-09-29T19:58:44.949Z,98812.86
2018-09-29T20:01:15.878Z,98808.64
2018-09-29T20:03:46.287Z,98810.92
2018-09-29T20:06:16.668Z,98810.66
2018-09-29T20:08:47.090Z,98819.25
2018-09-29T20:11:17.771Z,98819.13
2018-09-29T20:13:48.939Z,98813.63
2018-09-29T20:16:19.462Z,98815.62
2018-09-29T20:18:53.918Z,98811.03
2018-09-29T20:21:28.404Z,98809.78
2018-09-29T20:23:59.021Z,98809.84
2018-09-29T20:26:29.679Z,98814.41
2018-09-29T20:29:00.424Z,98818.98
2018-09-29T20:31:31.834Z,98822.27
2018-09-29T20:34:02.513Z,98822.46
2018-09-29T20:36:33.152Z,98821.33
2018-09-29T20:39:04.702Z,98828.42
2018-09-29T20:41:35.130Z,98829.05
2018-09-29T20:44:05.817Z,98832.23
2018-09-29T20:46:37.143Z,98829.34
2018-09-29T20:49:08.509Z,98830.63
2018-09-29T20:51:42.210Z,98828.46
2018-09-29T20:54:13.409Z,98825.89
2018-09-29T20:56:43.987Z,98824.66
2018-09-29T20:59:14.782Z,98823.92
2018-09-29T21:01:45.844Z,98820.69
2018-09-29T21:04:17.002Z,98822.98
2018-09-29T21:06:53.829Z,98821.81
2018-09-29T21:09:24.487Z,98828.39
2018-09-29T21:11:55.044Z,98821.96
2018-09-29T21:14:25.897Z,98819.44
2018-09-29T21:16:56.331Z,98816.36
2018-09-29T21:19:26.957Z,98807.70
2018-09-29T21:21:59.229Z,98807.82
2018-09-29T21:24:29.893Z,98807.09
2018-09-29T21:27:00.357Z,98808.52
2018-09-29T21:29:31.383Z,98813.47
2018-09-29T21:32:02.918Z,98817.45
2018-09-29T21:34:33.534Z,98813.24
2018-09-29T21:37:04.190Z,98821.52
2018-09-29T21:39:34.886Z,98820.70
2018-09-29T21:42:05.918Z,98819.92
2018-09-29T21:44:37.186Z,98821.70
2018-09-29T21:47:08.492Z,98824.75
2018-09-29T21:49:38.837Z,98817.51
2018-09-29T21:52:09.303Z,98813.69
2018-09-29T21:54:39.741Z,98816.74
2018-09-29T21:57:10.386Z,98813.72
2018-09-29T21:59:40.836Z,98808.52
2018-09-29T22:02:11.298Z,98800.84
2018-09-29T22:04:41.713Z,98799.66
2018-09-29T22:07:14.520Z,98795.81
2018-09-29T22:09:44.970Z,98799.83
2018-09-29T22:12:15.470Z,98797.77
2018-09-29T22:14:45.899Z,98797.00
2018-09-29T22:17:17.206Z,98797.52
2018-09-29T22:19:47.573Z,98791.96
2018-09-29T22:22:18.082Z,98784.64
2018-09-29T22:24:50.196Z,98778.64
2018-09-29T22:27:20.687Z,98779.98
2018-09-29T22:29:51.076Z,98780.43
2018-09-29T22:32:21.614Z,98775.27
2018-09-29T22:34:52.224Z,98779.57
2018-09-29T22:37:22.568Z,98774.77
2018-09-29T22:39:52.974Z,98773.05
2018-09-29T22:42:23.429Z,98771.83
2018-09-29T22:44:53.912Z,98770.67
2018-09-29T22:47:26.669Z,98768.21
2018-09-29T22:49:57.078Z,98765.22
2018-09-29T22:52:28.685Z,98766.56
2018-09-29T22:54:59.651Z,98766.15
2018-09-29T22:57:30.036Z,98768.78
2018-09-29T23:00:00.520Z,98759.27
2018-09-29T23:02:30.964Z,98756.18
2018-09-29T23:05:04.681Z,98757.03
2018-09-29T23:07:35.044Z,98759.20
2018-09-29T23:10:05.466Z,98755.00
2018-09-29T23:12:35.828Z,98756.80
2018-09-29T23:15:06.276Z,98755.56
2018-09-29T23:17:36.659Z,98751.32
2018-09-29T23:20:07.107Z,98751.33
2018-09-29T23:22:37.535Z,98756.53
2018-09-29T23:25:08.184Z,98751.81
2018-09-29T23:27:38.632Z,98752.28
2018-09-29T23:30:09.083Z,98755.30
2018-09-29T23:32:39.509Z,98744.17
2018-09-29T23:35:09.914Z,98737.76
2018-09-29T23:37:40.420Z,98736.00
2018-09-29T23:40:10.818Z,98733.42
2018-09-29T23:42:41.274Z,98730.46
2018-09-29T23:45:11.559Z,98733.94
2018-09-29T23:47:41.922Z,98731.83
2018-09-29T23:50:12.221Z,98733.13
2018-09-29T23:52:42.577Z,98721.95
2018-09-29T23:55:12.921Z,98715.52
2018-09-29T23:57:43.533Z,98715.03
